Time;durP1;ratioP1;P1;durP2;ratioP2;P2;SDS_P1;SDS_P2;PMS_P1;PMS_P2;Temp;Humidity;BMP_temperature;BMP_pressure;BME280_temperature;BME280_humidity;BME280_pressure;Samples;Min_cycle;Max_cycle;Signal;HPM_P1;HPM_P2
2020/12/01 00:00:38;;;;;;;13.43;2.50;;;9.60;99.90;;;;;;3611730;39;20427;-73
2020/12/01 00:03:04;;;;;;;12.18;3.17;;;9.50;99.90;;;;;;3612006;39;20113;-73
2020/12/01 00:05:30;;;;;;;12.73;2.60;;;9.50;99.90;;;;;;3611916;39;20122;-73
2020/12/01 00:07:56;;;;;;;9.20;1.83;;;9.50;99.90;;;;;;3680347;32;20110;-73
2020/12/01 00:10:21;;;;;;;14.50;4.00;;;9.50;99.90;;;;;;3611739;39;20179;-72
2020/12/01 00:12:49;;;;;;;13.48;2.55;;;9.50;99.90;;;;;;3611787;39;20134;-72
2020/12/01 00:15:20;;;;;;;15.25;3.17;;;9.30;99.90;;;;;;3669767;32;20175;-75
2020/12/01 00:17:46;;;;;;;15.55;2.40;;;9.30;99.90;;;;;;3680472;32;20110;-75
2020/12/01 00:23:33;;;;;;;12.23;3.10;;;9.40;99.90;;;;;;3613534;39;20124;-74
2020/12/01 00:25:59;;;;;;;19.70;4.22;;;9.40;99.90;;;;;;3613525;39;20106;-76
2020/12/01 00:28:25;;;;;;;18.75;3.53;;;9.50;99.90;;;;;;3613486;39;20118;-72
2020/12/01 07:15:05;;;;;;;32.92;4.97;;;8.60;99.90;;;;;;3540131;28;20459;-73
2020/12/01 07:17:52;;;;;;;33.67;4.85;;;8.50;99.90;;;;;;3483061;41;20502;-72
2020/12/01 07:20:24;;;;;;;27.65;4.60;;;8.50;99.90;;;;;;3486584;33;20514;-74
2020/12/01 07:22:50;;;;;;;37.75;5.47;;;8.40;99.90;;;;;;3487774;33;20134;-74
2020/12/01 07:25:21;;;;;;;35.72;5.07;;;8.40;99.90;;;;;;3484749;41;20184;-73
2020/12/01 07:28:20;;;;;;;30.05;5.10;;;8.50;99.90;;;;;;3491271;33;20106;-74
2020/12/01 07:31:22;;;;;;;24.40;4.90;;;8.50;99.90;;;;;;3485008;41;20122;-68
2020/12/01 07:33:54;;;;;;;27.77;4.82;;;9.60;99.90;;;;;;3483285;33;20614;-63
2020/12/01 07:36:40;;;;;;;37.33;5.78;;;9.80;99.90;;;;;;3488058;33;20146;-66
2020/12/01 07:39:20;;;;;;;31.23;4.60;;;9.70;99.90;;;;;;3489944;33;20182;-64
2020/12/01 07:42:02;;;;;;;24.77;4.30;;;9.70;99.90;;;;;;3484863;41;20170;-63
2020/12/01 07:44:31;;;;;;;26.08;5.05;;;10.00;99.90;;;;;;3490653;33;20122;-64
2020/12/01 07:47:10;;;;;;;21.77;4.95;;;10.20;99.90;;;;;;3492317;33;20138;-67
2020/12/01 07:49:36;;;;;;;24.80;5.63;;;10.20;99.90;;;;;;3475452;41;20119;-63
2020/12/01 07:52:07;;;;;;;25.50;4.95;;;10.00;99.90;;;;;;3482083;41;20190;-72
2020/12/01 07:54:37;;;;;;;29.77;5.88;;;9.80;99.90;;;;;;3492200;33;20262;-71
2020/12/01 07:57:22;;;;;;;21.85;4.90;;;9.30;99.90;;;;;;3485314;41;20102;-73
2020/12/01 07:59:50;;;;;;;32.20;4.07;;;9.10;99.90;;;;;;3484812;41;20110;-72
2020/12/01 08:02:18;;;;;;;28.70;4.28;;;9.00;99.90;;;;;;3489692;33;20147;-72
2020/12/01 08:04:44;;;;;;;19.83;3.90;;;8.90;99.90;;;;;;3490041;33;20229;-71
2020/12/01 08:07:15;;;;;;;22.70;3.88;;;8.80;99.90;;;;;;3484994;41;20130;-72
2020/12/01 08:09:42;;;;;;;23.65;4.25;;;8.80;99.90;;;;;;3491893;33;20111;-72
2020/12/01 08:12:12;;;;;;;25.92;4.28;;;8.80;99.90;;;;;;3480111;41;20142;-72
2020/12/01 08:14:38;;;;;;;25.95;4.18;;;8.80;99.90;;;;;;3487907;33;20127;-73
2020/12/01 08:17:11;;;;;;;18.73;4.25;;;8.80;99.90;;;;;;3485141;41;20119;-72
2020/12/01 08:19:37;;;;;;;26.23;4.32;;;8.70;99.90;;;;;;3484912;41;20106;-73
2020/12/01 08:22:06;;;;;;;26.08;4.82;;;8.70;99.90;;;;;;3484858;41;20607;-72
2020/12/01 08:24:39;;;;;;;26.38;4.28;;;8.70;99.90;;;;;;3488550;33;20432;-72
2020/12/01 08:27:19;;;;;;;34.60;8.43;;;8.70;99.90;;;;;;3485186;33;20591;-72
2020/12/01 08:29:46;;;;;;;32.55;6.93;;;8.70;99.90;;;;;;3491564;33;20127;-72
2020/12/01 08:32:34;;;;;;;30.88;5.55;;;8.70;99.90;;;;;;3484937;41;20114;-72
2020/12/01 08:35:33;;;;;;;27.75;4.45;;;8.80;99.90;;;;;;3489450;33;20122;-72
2020/12/01 08:38:14;;;;;;;30.90;4.50;;;8.80;99.90;;;;;;3489808;33;20425;-72
2020/12/01 08:41:01;;;;;;;29.08;4.28;;;8.80;99.90;;;;;;3489075;33;20161;-72
2020/12/01 08:43:45;;;;;;;32.95;5.47;;;9.00;99.90;;;;;;3485517;33;20603;-73
2020/12/01 08:46:23;;;;;;;26.33;4.07;;;9.00;99.90;;;;;;3485609;33;20122;-73
2020/12/01 08:49:06;;;;;;;27.95;4.75;;;9.10;99.90;;;;;;3484578;41;20186;-72
2020/12/01 08:51:58;;;;;;;27.17;5.50;;;9.00;99.90;;;;;;3484385;41;20122;-72
2020/12/01 08:54:28;;;;;;;29.83;5.35;;;9.10;99.90;;;;;;3489729;33;20531;-72
2020/12/01 08:57:09;;;;;;;27.58;5.05;;;9.10;99.90;;;;;;3487196;33;20536;-73
2020/12/01 08:59:46;;;;;;;30.35;5.80;;;9.20;99.90;;;;;;3486593;33;20526;-72
2020/12/01 09:02:13;;;;;;;38.92;5.68;;;9.30;99.90;;;;;;3492755;33;21069;-73
2020/12/01 09:04:39;;;;;;;34.80;5.90;;;9.40;99.90;;;;;;3492279;33;20527;-74
2020/12/01 09:07:29;;;;;;;29.23;4.35;;;9.40;99.90;;;;;;3484097;41;20129;-73
2020/12/01 09:10:11;;;;;;;31.90;5.13;;;9.40;99.90;;;;;;3484384;41;20106;-73
2020/12/01 09:12:47;;;;;;;34.72;5.07;;;9.40;99.90;;;;;;3486632;33;20131;-73
2020/12/01 09:24:02;;;;;;;19.40;3.35;;;9.30;99.90;;;;;;3484584;33;20187;-73
2020/12/01 09:26:29;;;;;;;19.77;3.50;;;9.30;99.90;;;;;;3488466;33;20110;-72
2020/12/01 09:28:55;;;;;;;21.83;3.92;;;9.30;99.90;;;;;;3484122;41;20253;-72
2020/12/01 09:31:24;;;;;;;23.77;3.72;;;9.40;99.90;;;;;;3485678;33;20107;-72
2020/12/01 09:33:53;;;;;;;16.20;3.40;;;9.40;99.90;;;;;;3490702;33;20118;-77
2020/12/01 09:36:22;;;;;;;20.77;3.75;;;9.40;99.90;;;;;;3483759;41;20677;-73
2020/12/01 09:38:49;;;;;;;22.38;3.83;;;9.40;99.90;;;;;;3487622;33;20118;-73
2020/12/01 09:41:17;;;;;;;16.45;3.42;;;9.40;99.90;;;;;;3484931;33;20568;-73
2020/12/01 09:43:49;;;;;;;24.00;3.75;;;9.50;99.90;;;;;;3484931;33;20626;-71
2020/12/01 09:46:16;;;;;;;17.90;3.47;;;9.50;99.90;;;;;;3484194;41;20114;-72
2020/12/01 09:48:47;;;;;;;20.40;3.78;;;9.50;99.90;;;;;;3484031;41;20134;-74
2020/12/01 09:51:15;;;;;;;26.48;4.35;;;9.60;99.90;;;;;;3490937;33;20150;-73
2020/12/01 09:57:10;;;;;;;27.05;4.80;;;9.60;99.90;;;;;;3483894;41;20107;-73
2020/12/01 09:59:27;;;;;;;27.85;5.00;;;9.60;99.90;;;;;;3484788;33;20429;-72
2020/12/01 10:12:40;;;;;;;29.38;4.63;;;9.30;99.90;;;;;;3486952;33;20101;-73
2020/12/01 10:35:52;;;;;;;31.00;4.95;;;9.60;99.90;;;;;;3486253;33;20101;-73
2020/12/01 10:38:18;;;;;;;30.85;4.35;;;9.60;99.90;;;;;;3483567;41;20150;-73
2020/12/01 10:40:44;;;;;;;24.15;3.97;;;9.50;99.90;;;;;;3488920;33;20149;-72
2020/12/01 10:43:09;;;;;;;25.70;4.32;;;9.30;99.90;;;;;;3483907;41;20150;-73
2020/12/01 10:45:35;;;;;;;25.17;3.90;;;9.30;99.90;;;;;;3483901;41;20162;-73
2020/12/01 10:48:01;;;;;;;21.42;3.83;;;9.30;99.90;;;;;;3483741;41;20194;-72
2020/12/01 10:50:29;;;;;;;37.10;13.45;;;9.30;99.90;;;;;;3483416;41;20115;-72
2020/12/01 10:52:55;;;;;;;23.27;4.20;;;9.50;99.90;;;;;;3483677;41;20126;-73
2020/12/01 10:55:27;;;;;;;21.65;3.65;;;9.60;99.90;;;;;;3484101;41;20121;-72
2020/12/01 10:57:53;;;;;;;25.50;4.93;;;9.50;99.90;;;;;;3485556;33;20162;-72
2020/12/01 11:00:21;;;;;;;25.55;4.15;;;9.50;99.90;;;;;;3484894;33;20114;-73
2020/12/01 11:02:47;;;;;;;21.80;4.00;;;9.70;99.90;;;;;;3483545;41;20625;-73
2020/12/01 11:05:17;;;;;;;26.25;4.03;;;9.80;99.90;;;;;;3484139;33;20117;-72
2020/12/01 11:07:43;;;;;;;25.42;3.35;;;9.90;99.90;;;;;;3490793;33;20179;-76
2020/12/01 11:10:09;;;;;;;21.30;3.88;;;10.00;99.90;;;;;;3483658;41;20563;-72
2020/12/01 11:12:35;;;;;;;22.63;4.18;;;10.30;99.90;;;;;;3483845;33;20129;-72
2020/12/01 11:15:02;;;;;;;23.00;3.95;;;10.50;99.90;;;;;;3483874;41;20114;-72
2020/12/01 11:17:28;;;;;;;21.17;3.40;;;10.50;99.90;;;;;;3483434;41;20234;-72
2020/12/01 11:19:53;;;;;;;17.80;3.47;;;10.30;99.90;;;;;;3483129;41;20129;-73
2020/12/01 11:22:19;;;;;;;21.23;3.78;;;10.10;99.90;;;;;;3483325;41;20174;-74
2020/12/01 11:24:45;;;;;;;19.35;3.63;;;10.20;99.90;;;;;;3483435;41;20194;-72
2020/12/01 11:27:10;;;;;;;19.70;3.75;;;10.30;99.90;;;;;;3483413;41;20177;-73
2020/12/01 11:29:36;;;;;;;23.27;3.78;;;10.50;99.90;;;;;;3483008;41;20125;-72
2020/12/01 11:32:03;;;;;;;23.80;4.00;;;10.50;99.90;;;;;;3483323;41;20103;-72
2020/12/01 11:34:29;;;;;;;26.17;4.00;;;10.40;99.90;;;;;;3485211;33;20133;-72
2020/12/01 11:36:55;;;;;;;19.50;4.03;;;10.60;99.90;;;;;;3483411;41;20502;-71
2020/12/01 11:39:21;;;;;;;24.25;4.10;;;10.80;99.90;;;;;;3485117;33;20653;-71
2020/12/01 11:41:47;;;;;;;21.70;4.15;;;11.00;99.90;;;;;;3486314;33;20118;-76
2020/12/01 11:44:13;;;;;;;22.27;4.15;;;11.10;99.90;;;;;;3488416;41;20130;-73
2020/12/01 11:46:40;;;;;;;24.10;4.40;;;11.30;99.90;;;;;;3490913;33;20606;-73
2020/12/01 11:49:06;;;;;;;24.20;4.22;;;11.40;99.90;;;;;;3487459;41;20127;-73
2020/12/01 11:51:33;;;;;;;24.70;3.63;;;11.00;99.90;;;;;;3487454;41;20111;-73
2020/12/01 11:53:59;;;;;;;19.00;3.53;;;10.80;99.90;;;;;;3487142;41;20129;-73
2020/12/01 11:56:27;;;;;;;16.25;2.88;;;10.60;99.90;;;;;;3486570;41;20115;-73
2020/12/01 11:58:52;;;;;;;15.38;3.10;;;10.50;99.90;;;;;;3492644;41;20118;-74
2020/12/01 12:01:18;;;;;;;19.85;4.22;;;10.40;99.90;;;;;;3490606;41;20590;-73
2020/12/01 12:03:44;;;;;;;21.05;3.30;;;10.70;99.90;;;;;;3482961;41;20125;-73
2020/12/01 12:06:12;;;;;;;21.40;3.35;;;10.90;99.90;;;;;;3483141;41;20135;-74
2020/12/01 12:08:38;;;;;;;19.80;3.60;;;11.10;99.90;;;;;;3490118;33;20544;-73
2020/12/01 12:11:03;;;;;;;23.75;3.33;;;11.10;99.90;;;;;;3484116;41;20171;-74
2020/12/01 12:13:29;;;;;;;19.50;3.22;;;11.30;99.90;;;;;;3484752;41;20122;-73
2020/12/01 12:15:56;;;;;;;18.17;3.33;;;11.50;99.90;;;;;;3484785;41;20193;-73
2020/12/01 12:18:21;;;;;;;25.92;4.07;;;11.90;99.90;;;;;;3484673;41;20110;-74
2020/12/01 12:20:47;;;;;;;24.80;3.75;;;11.70;99.90;;;;;;3484852;41;20117;-74
2020/12/01 12:23:13;;;;;;;21.13;3.50;;;11.10;99.90;;;;;;3484678;41;20202;-72
2020/12/01 12:25:38;;;;;;;20.92;3.90;;;10.80;99.90;;;;;;3484791;41;20129;-73
2020/12/01 12:28:04;;;;;;;15.93;3.22;;;10.80;99.90;;;;;;3484497;41;20126;-73
2020/12/01 12:30:30;;;;;;;17.92;3.10;;;10.80;99.90;;;;;;3485151;41;20207;-72
2020/12/01 12:32:56;;;;;;;20.02;3.55;;;10.90;99.90;;;;;;3484788;41;20126;-73
2020/12/01 12:35:23;;;;;;;18.08;3.33;;;11.40;99.90;;;;;;3484433;41;20174;-72
2020/12/01 12:37:49;;;;;;;18.13;2.97;;;11.30;99.90;;;;;;3484522;41;20219;-73
2020/12/01 12:40:15;;;;;;;17.50;3.50;;;11.10;99.90;;;;;;3486796;33;20113;-70
2020/12/01 12:42:40;;;;;;;19.98;3.85;;;10.90;99.90;;;;;;3484583;41;20110;-72
2020/12/01 12:45:07;;;;;;;21.95;4.07;;;10.50;99.90;;;;;;3484321;41;20114;-74
2020/12/01 12:47:33;;;;;;;20.48;4.15;;;11.20;99.90;;;;;;3487351;41;20505;-73
2020/12/01 12:49:59;;;;;;;21.15;3.78;;;11.30;99.90;;;;;;3485365;41;20134;-74
2020/12/01 12:52:24;;;;;;;17.98;3.78;;;11.70;99.90;;;;;;3484543;41;20122;-72
2020/12/01 12:54:50;;;;;;;19.67;4.25;;;12.00;99.90;;;;;;3484709;41;20183;-72
2020/12/01 12:57:16;;;;;;;26.17;4.47;;;12.40;99.90;;;;;;3484626;41;20134;-72
2020/12/01 12:59:42;;;;;;;25.13;4.55;;;12.80;99.90;;;;;;3484662;41;20167;-72
2020/12/01 13:02:07;;;;;;;20.63;4.25;;;13.00;99.90;;;;;;3484325;41;20560;-72
2020/12/01 13:04:33;;;;;;;21.40;4.38;;;13.10;99.90;;;;;;3484456;41;20130;-72
2020/12/01 13:06:59;;;;;;;25.30;4.35;;;13.30;99.90;;;;;;3484593;41;20133;-72
2020/12/01 13:09:24;;;;;;;22.83;5.03;;;13.50;99.90;;;;;;3484693;41;20161;-72
2020/12/01 13:11:51;;;;;;;17.70;3.85;;;13.70;99.90;;;;;;3484151;41;20132;-72
2020/12/01 13:14:17;;;;;;;24.73;4.20;;;13.80;99.90;;;;;;3484683;41;20126;-73
2020/12/01 13:16:47;;;;;;;21.83;3.65;;;14.10;99.90;;;;;;3484403;41;20114;-72
2020/12/01 13:19:12;;;;;;;21.05;3.47;;;14.00;99.90;;;;;;3484903;41;20582;-73
2020/12/01 13:21:38;;;;;;;22.75;3.42;;;13.50;99.90;;;;;;3484308;41;20126;-72
2020/12/01 13:24:04;;;;;;;21.05;3.58;;;13.10;99.90;;;;;;3484832;41;20122;-75
2020/12/01 13:26:29;;;;;;;19.63;3.42;;;12.80;99.90;;;;;;3484488;41;20142;-72
2020/12/01 13:28:55;;;;;;;15.70;3.75;;;12.60;99.90;;;;;;3484644;41;20583;-72
2020/12/01 13:31:21;;;;;;;17.48;3.42;;;12.40;99.90;;;;;;3484159;41;20495;-71
2020/12/01 13:33:46;;;;;;;22.42;3.60;;;12.30;99.90;;;;;;3484460;41;20121;-72
2020/12/01 13:36:12;;;;;;;21.63;3.75;;;12.10;99.90;;;;;;3484630;41;20210;-75
2020/12/01 13:38:38;;;;;;;17.30;3.28;;;11.90;99.90;;;;;;3492977;33;20126;-73
2020/12/01 13:41:04;;;;;;;20.15;3.80;;;12.00;99.90;;;;;;3484361;41;20107;-72
2020/12/01 13:43:29;;;;;;;16.35;3.55;;;12.20;99.90;;;;;;3484149;41;20133;-71
2020/12/01 13:45:55;;;;;;;13.77;3.13;;;12.60;99.90;;;;;;3484694;41;20107;-72
2020/12/01 13:48:21;;;;;;;17.90;3.35;;;12.50;99.90;;;;;;3484430;41;20603;-73
2020/12/01 13:50:46;;;;;;;21.20;3.50;;;12.20;99.90;;;;;;3484189;41;20114;-72
2020/12/01 13:53:13;;;;;;;21.10;3.33;;;12.10;99.90;;;;;;3484844;41;20134;-71
2020/12/01 13:55:40;;;;;;;16.98;3.83;;;11.90;99.90;;;;;;3494180;41;20116;-72
2020/12/01 13:58:06;;;;;;;22.58;4.35;;;12.10;99.90;;;;;;3493772;41;20697;-72
2020/12/01 14:00:33;;;;;;;21.45;4.25;;;12.50;99.90;;;;;;3494001;41;20126;-72
2020/12/01 14:03:00;;;;;;;18.33;4.35;;;12.90;99.90;;;;;;3484509;41;20115;-72
2020/12/01 14:05:26;;;;;;;20.65;4.18;;;13.10;99.90;;;;;;3484306;41;20114;-71
2020/12/01 14:07:52;;;;;;;19.20;4.50;;;13.40;99.90;;;;;;3484386;41;20107;-75
2020/12/01 14:10:19;;;;;;;20.58;4.40;;;13.50;99.90;;;;;;3484231;41;20134;-73
2020/12/01 14:12:45;;;;;;;21.58;4.38;;;13.60;99.90;;;;;;3484077;41;20598;-72
2020/12/01 14:15:11;;;;;;;21.25;4.38;;;13.70;99.90;;;;;;3484390;41;20118;-74
2020/12/01 14:17:37;;;;;;;23.05;4.35;;;13.80;99.90;;;;;;3484737;33;20118;-74
2020/12/01 14:20:08;;;;;;;25.83;4.15;;;13.90;99.90;;;;;;3484171;41;20126;-73
2020/12/01 14:22:33;;;;;;;26.25;4.90;;;13.90;99.90;;;;;;3485240;33;20130;-72
2020/12/01 14:24:59;;;;;;;17.83;4.43;;;13.90;99.90;;;;;;3483826;41;20127;-72
2020/12/01 14:27:25;;;;;;;21.95;4.32;;;13.80;99.90;;;;;;3483899;41;20126;-72
2020/12/01 14:29:51;;;;;;;16.35;3.90;;;13.70;99.90;;;;;;3483306;41;20213;-73
2020/12/01 14:32:17;;;;;;;19.52;4.15;;;13.50;99.90;;;;;;3483611;41;20111;-72
2020/12/01 14:34:42;;;;;;;21.63;6.07;;;13.40;99.90;;;;;;3483546;41;20137;-73
2020/12/01 14:37:14;;;;;;;22.90;4.70;;;13.40;99.90;;;;;;3482703;41;20121;-74
2020/12/01 14:39:43;;;;;;;21.13;3.78;;;13.40;99.90;;;;;;3483828;41;20592;-78
2020/12/01 14:42:13;;;;;;;20.35;4.13;;;13.30;99.90;;;;;;3486618;33;20130;-74
2020/12/01 14:44:38;;;;;;;18.75;3.75;;;13.30;99.90;;;;;;3483576;41;20611;-71
2020/12/01 14:47:26;;;;;;;22.02;4.05;;;13.20;99.90;;;;;;3483160;41;20126;-71
2020/12/01 14:49:54;;;;;;;17.23;4.38;;;13.10;99.90;;;;;;3483515;41;20198;-72
2020/12/01 14:52:28;;;;;;;16.67;4.90;;;12.90;99.90;;;;;;3488735;33;20134;-74
2020/12/01 14:55:13;;;;;;;21.33;4.93;;;12.90;99.90;;;;;;3490235;33;20122;-73
2020/12/01 14:57:57;;;;;;;21.85;4.03;;;12.60;99.90;;;;;;3485453;33;20126;-71
2020/12/01 15:00:51;;;;;;;18.55;3.42;;;12.40;99.90;;;;;;3484523;33;20134;-73
2020/12/01 15:04:00;;;;;;;22.08;3.90;;;12.10;99.90;;;;;;3485233;33;20114;-72
2020/12/01 15:08:22;;;;;;;19.48;4.03;;;11.80;99.90;;;;;;5129463;27;20395;-72
2020/12/01 15:11:22;;;;;;;16.65;3.20;;;11.50;99.90;;;;;;5129690;28;20068;-72
2020/12/01 15:13:47;;;;;;;22.85;3.63;;;11.50;99.90;;;;;;5108964;28;20479;-71
2020/12/01 15:16:19;;;;;;;17.73;3.72;;;11.50;99.90;;;;;;5127409;28;20076;-72
2020/12/01 15:18:48;;;;;;;18.88;3.10;;;11.30;99.90;;;;;;5129548;28;20089;-71
2020/12/01 15:21:16;;;;;;;16.23;2.92;;;11.20;99.90;;;;;;5129209;28;20031;-72
2020/12/01 15:23:54;;;;;;;19.05;3.80;;;11.20;99.90;;;;;;5108996;28;20102;-72
2020/12/01 15:26:20;;;;;;;24.13;3.97;;;11.20;99.90;;;;;;5108903;28;20073;-71
2020/12/01 15:28:47;;;;;;;15.20;3.08;;;11.10;99.90;;;;;;5109339;28;20110;-72
2020/12/01 15:31:16;;;;;;;17.73;2.92;;;11.10;99.90;;;;;;5108637;28;20028;-72
2020/12/01 15:33:45;;;;;;;17.13;3.35;;;11.10;99.90;;;;;;5128845;28;20082;-72
2020/12/01 15:36:16;;;;;;;18.30;3.53;;;11.10;99.90;;;;;;5128750;28;20023;-72
2020/12/01 15:38:42;;;;;;;17.00;3.10;;;11.00;99.90;;;;;;5129135;27;20020;-72
2020/12/01 15:41:11;;;;;;;14.55;2.95;;;10.90;99.90;;;;;;5128872;28;20019;-73
2020/12/01 15:43:39;;;;;;;13.10;2.65;;;10.90;99.90;;;;;;5128377;28;20055;-73
2020/12/01 15:46:15;;;;;;;14.70;3.20;;;10.90;99.90;;;;;;5128550;27;20031;-72
2020/12/01 15:48:42;;;;;;;14.18;2.85;;;10.90;99.90;;;;;;5128787;28;20069;-72
2020/12/01 15:51:10;;;;;;;14.90;2.90;;;10.90;99.90;;;;;;5128702;28;20051;-74
2020/12/01 15:53:54;;;;;;;14.57;2.72;;;10.90;99.90;;;;;;5128682;28;20023;-72
2020/12/01 15:56:26;;;;;;;16.98;3.38;;;10.80;99.90;;;;;;5128679;28;20028;-72
2020/12/01 15:59:21;;;;;;;16.45;3.00;;;10.70;99.90;;;;;;5128484;28;20031;-73
2020/12/01 16:02:14;;;;;;;16.50;3.28;;;10.70;99.90;;;;;;5127142;28;20494;-73
2020/12/01 16:05:18;;;;;;;16.13;3.00;;;10.80;99.90;;;;;;5128764;28;20521;-72
2020/12/01 16:08:10;;;;;;;15.23;2.92;;;10.60;99.90;;;;;;5128338;28;20672;-72
2020/12/01 16:10:51;;;;;;;15.98;3.00;;;10.60;99.90;;;;;;5108146;28;20028;-72
2020/12/01 16:13:40;;;;;;;12.85;2.40;;;10.60;99.90;;;;;;5107453;28;20433;-75
2020/12/01 16:16:19;;;;;;;17.10;3.25;;;10.50;99.90;;;;;;5108350;28;20047;-72
2020/12/01 16:19:19;;;;;;;14.95;2.42;;;10.50;99.90;;;;;;5101340;28;20440;-74
2020/12/01 16:21:47;;;;;;;14.80;2.90;;;10.40;99.90;;;;;;5114828;28;20535;-72
2020/12/01 16:24:19;;;;;;;19.98;3.30;;;10.50;99.90;;;;;;5113590;28;20391;-73
2020/12/01 16:26:58;;;;;;;13.40;2.70;;;10.40;99.90;;;;;;5114133;28;20039;-72
2020/12/01 16:29:41;;;;;;;16.58;2.70;;;10.30;99.90;;;;;;5114502;28;20027;-72
2020/12/01 16:32:08;;;;;;;14.60;2.65;;;10.30;99.90;;;;;;5113904;28;20020;-72
2020/12/01 16:34:34;;;;;;;12.23;3.10;;;10.20;99.90;;;;;;5114451;28;20148;-73
2020/12/01 16:37:20;;;;;;;16.67;2.90;;;10.10;99.90;;;;;;5114283;28;20031;-71
2020/12/01 16:40:01;;;;;;;10.25;3.08;;;10.00;99.90;;;;;;5114132;28;20111;-72
2020/12/01 16:42:39;;;;;;;13.50;3.17;;;9.90;99.90;;;;;;5114235;28;20024;-72
2020/12/01 16:45:19;;;;;;;14.02;3.45;;;9.80;99.90;;;;;;5113923;28;20027;-72
2020/12/01 16:48:13;;;;;;;15.32;3.35;;;9.80;99.90;;;;;;5114018;28;20123;-72
2020/12/01 16:50:43;;;;;;;14.35;3.72;;;9.70;99.90;;;;;;5113358;28;20028;-73
2020/12/01 16:53:39;;;;;;;13.43;3.10;;;9.70;99.90;;;;;;5113789;28;20023;-72
2020/12/01 16:56:08;;;;;;;15.52;3.67;;;9.80;99.90;;;;;;5114137;28;20458;-72
2020/12/01 16:58:42;;;;;;;18.25;3.47;;;9.80;99.90;;;;;;5114187;28;20344;-72
2020/12/01 17:01:31;;;;;;;16.23;3.55;;;9.80;99.90;;;;;;5093610;28;20035;-72
2020/12/01 17:04:24;;;;;;;16.55;3.38;;;9.80;99.90;;;;;;5093380;28;20028;-72
2020/12/01 17:06:59;;;;;;;15.35;3.63;;;9.70;99.90;;;;;;5093367;28;20056;-72
2020/12/01 17:09:24;;;;;;;11.13;3.08;;;9.70;99.90;;;;;;5092745;28;20067;-72
2020/12/01 17:12:04;;;;;;;14.02;3.50;;;9.70;99.90;;;;;;5093513;28;20052;-74
2020/12/01 17:14:30;;;;;;;17.23;3.88;;;9.70;99.90;;;;;;5109554;28;20024;-72
2020/12/01 17:17:20;;;;;;;18.08;2.95;;;9.60;99.90;;;;;;5113584;28;20551;-74
2020/12/01 17:19:46;;;;;;;15.98;3.38;;;9.50;99.90;;;;;;5112808;28;20051;-72
2020/12/01 17:22:15;;;;;;;14.55;3.28;;;9.40;99.90;;;;;;5113410;28;20419;-72
2020/12/01 17:24:42;;;;;;;19.23;3.67;;;9.30;99.90;;;;;;5113348;28;20026;-71
2020/12/01 17:27:12;;;;;;;19.15;4.25;;;9.30;99.90;;;;;;5113055;28;20032;-72
2020/12/01 17:29:47;;;;;;;12.45;3.72;;;9.30;99.90;;;;;;5113981;27;20145;-72
2020/12/01 17:32:40;;;;;;;18.75;4.30;;;9.30;99.90;;;;;;5120293;27;20022;-72
2020/12/01 17:35:20;;;;;;;19.10;3.80;;;9.20;99.90;;;;;;5121425;27;20094;-76
2020/12/01 17:37:57;;;;;;;15.23;3.47;;;9.10;99.90;;;;;;5128342;27;20039;-75
2020/12/01 17:40:56;;;;;;;20.60;3.83;;;9.00;99.90;;;;;;5118049;27;20104;-76
2020/12/01 17:44:09;;;;;;;17.13;4.07;;;9.00;99.90;;;;;;5129674;27;20031;-73
2020/12/01 17:46:42;;;;;;;18.02;3.85;;;9.00;99.90;;;;;;5100319;27;20051;-74
2020/12/01 17:49:20;;;;;;;20.23;4.03;;;9.00;99.90;;;;;;5099176;27;20019;-74
2020/12/01 17:51:48;;;;;;;20.25;4.07;;;9.10;99.90;;;;;;5117382;27;20032;-75
2020/12/01 17:54:22;;;;;;;22.52;5.00;;;9.30;99.90;;;;;;5129785;27;20110;-73
2020/12/01 17:56:58;;;;;;;22.55;4.70;;;9.30;99.90;;;;;;5133688;27;20027;-74
2020/12/01 17:59:27;;;;;;;19.38;6.07;;;9.30;99.90;;;;;;5125717;27;20057;-73
2020/12/01 18:01:54;;;;;;;23.27;6.05;;;9.40;99.90;;;;;;5111865;28;20073;-73
2020/12/01 18:04:20;;;;;;;25.23;6.38;;;9.40;99.90;;;;;;5113567;27;20043;-74
2020/12/01 18:06:52;;;;;;;25.15;5.85;;;9.40;99.90;;;;;;5130428;27;20090;-73
2020/12/01 18:09:18;;;;;;;22.60;5.15;;;9.50;99.90;;;;;;5112942;28;20479;-74
2020/12/01 18:12:11;;;;;;;21.27;5.10;;;9.50;99.90;;;;;;5112957;28;20043;-74
2020/12/01 18:14:59;;;;;;;20.63;4.78;;;9.40;99.90;;;;;;5112781;27;20045;-74
2020/12/01 18:17:56;;;;;;;24.55;5.47;;;9.40;99.90;;;;;;5132986;27;20085;-75
2020/12/01 18:20:39;;;;;;;29.02;5.45;;;9.30;99.90;;;;;;5128045;27;20100;-73
2020/12/01 18:23:39;;;;;;;32.08;6.43;;;9.30;99.90;;;;;;5131517;27;20035;-74
2020/12/01 18:26:24;;;;;;;24.77;5.70;;;9.30;99.90;;;;;;5131237;27;20039;-76
2020/12/01 18:28:58;;;;;;;27.35;5.57;;;9.30;99.90;;;;;;5129375;27;20071;-73
2020/12/01 18:31:59;;;;;;;;;;;9.40;99.90;;;;;;5109756;27;20534;-72
2020/12/01 18:34:36;;;;;;;27.10;6.05;;;9.40;99.90;;;;;;5027984;28;19913;-74
2020/12/01 18:37:22;;;;;;;31.73;6.45;;;9.40;99.90;;;;;;5031778;28;20125;-74
2020/12/01 18:39:49;;;;;;;36.22;6.75;;;9.30;99.90;;;;;;5029997;28;20025;-74
2020/12/01 18:42:21;;;;;;;25.17;6.90;;;9.30;99.90;;;;;;5008843;28;20089;-74
2020/12/01 18:44:46;;;;;;;29.80;6.00;;;9.30;99.90;;;;;;5025923;28;20025;-75
2020/12/01 18:47:27;;;;;;;35.65;6.30;;;9.30;99.90;;;;;;5046707;28;20504;-75
2020/12/01 18:49:53;;;;;;;31.98;6.55;;;9.30;99.90;;;;;;5047722;28;20473;-78
2020/12/01 18:52:27;;;;;;;31.83;5.78;;;9.20;99.90;;;;;;5047395;28;20107;-73
2020/12/01 18:54:55;;;;;;;35.97;5.97;;;9.20;99.90;;;;;;5030467;28;20038;-71
2020/12/01 18:57:24;;;;;;;34.65;6.07;;;9.20;99.90;;;;;;5031059;28;20107;-73
2020/12/01 18:59:51;;;;;;;35.30;7.13;;;9.20;99.90;;;;;;5045682;28;20034;-74
2020/12/01 19:02:17;;;;;;;27.83;5.82;;;9.30;99.90;;;;;;5035528;28;20056;-73
2020/12/01 19:04:43;;;;;;;28.27;6.15;;;9.30;99.90;;;;;;5047305;28;20111;-75
2020/12/01 19:07:11;;;;;;;28.83;6.63;;;9.20;99.90;;;;;;5045385;28;20515;-72
2020/12/01 19:09:37;;;;;;;32.00;6.40;;;9.20;99.90;;;;;;5131989;28;20420;-73
2020/12/01 19:12:04;;;;;;;44.28;7.63;;;9.10;99.90;;;;;;5130677;28;20076;-74
2020/12/01 19:14:30;;;;;;;31.15;6.88;;;9.10;99.90;;;;;;5115429;28;20028;-73
2020/12/01 19:16:58;;;;;;;34.38;9.00;;;9.10;99.90;;;;;;5110597;28;20059;-73
2020/12/01 19:19:25;;;;;;;31.40;7.45;;;9.10;99.90;;;;;;5114097;28;20063;-73
2020/12/01 19:21:52;;;;;;;31.00;6.25;;;9.10;99.90;;;;;;5110694;28;20039;-73
2020/12/01 19:24:24;;;;;;;31.38;6.32;;;9.10;99.90;;;;;;5109901;28;20016;-73
2020/12/01 19:26:50;;;;;;;32.05;6.00;;;9.10;99.90;;;;;;5110983;28;20040;-73
2020/12/01 19:29:17;;;;;;;29.90;5.90;;;9.20;99.90;;;;;;5110397;28;20015;-71
2020/12/01 19:31:47;;;;;;;32.05;7.03;;;9.10;99.90;;;;;;5110791;28;20035;-70
2020/12/01 19:34:14;;;;;;;36.60;6.68;;;9.20;99.90;;;;;;5111182;28;20362;-70
2020/12/01 19:36:40;;;;;;;31.67;6.53;;;9.10;99.90;;;;;;5110661;28;20024;-72
2020/12/01 19:39:06;;;;;;;37.25;6.05;;;9.10;99.90;;;;;;5109950;28;20027;-70
2020/12/01 19:41:33;;;;;;;28.42;6.22;;;9.10;99.90;;;;;;5110950;28;20023;-72
2020/12/01 19:43:59;;;;;;;29.48;5.80;;;9.10;99.90;;;;;;5094679;28;20080;-72
2020/12/01 19:46:25;;;;;;;32.05;6.47;;;9.10;99.90;;;;;;5105334;28;20123;-71
2020/12/01 19:48:51;;;;;;;31.08;5.97;;;9.10;99.90;;;;;;5106418;28;20030;-71
2020/12/01 19:51:16;;;;;;;30.95;6.18;;;9.20;99.90;;;;;;5110078;28;20053;-72
2020/12/01 19:53:42;;;;;;;34.85;6.38;;;9.20;99.90;;;;;;5112107;28;20020;-71
2020/12/01 19:56:08;;;;;;;32.05;5.95;;;9.30;99.90;;;;;;5114116;28;20027;-73
2020/12/01 19:58:34;;;;;;;28.88;5.47;;;9.30;99.90;;;;;;5114618;28;20023;-72
2020/12/01 20:01:00;;;;;;;39.72;6.53;;;9.30;99.90;;;;;;5114862;28;20024;-75
2020/12/01 20:03:27;;;;;;;39.92;6.50;;;9.30;99.90;;;;;;5107614;28;20038;-72
2020/12/01 20:05:52;;;;;;;39.83;7.15;;;9.30;99.90;;;;;;5100034;28;20047;-73
2020/12/01 20:08:28;;;;;;;31.98;7.28;;;9.30;99.90;;;;;;5113230;28;20015;-75
2020/12/01 20:10:54;;;;;;;31.45;5.70;;;9.20;99.90;;;;;;5114307;28;20031;-73
2020/12/01 20:13:19;;;;;;;28.08;6.25;;;9.20;99.90;;;;;;5115910;28;20031;-70
2020/12/01 20:15:45;;;;;;;32.20;6.05;;;9.20;99.90;;;;;;5115259;28;20046;-72
2020/12/01 20:18:15;;;;;;;28.13;6.22;;;9.30;99.90;;;;;;5115415;28;20028;-72
2020/12/01 20:20:41;;;;;;;29.00;6.07;;;9.20;99.90;;;;;;5115677;28;20024;-74
2020/12/01 20:23:07;;;;;;;33.55;6.55;;;9.20;99.90;;;;;;5115530;28;20024;-71
2020/12/01 20:25:32;;;;;;;33.17;6.70;;;9.20;99.90;;;;;;5115336;28;20022;-73
2020/12/01 20:27:58;;;;;;;36.05;7.05;;;9.20;99.90;;;;;;5115144;28;20501;-73
2020/12/01 20:30:28;;;;;;;33.97;6.47;;;9.20;99.90;;;;;;5115432;28;20024;-74
2020/12/01 20:32:55;;;;;;;31.52;6.30;;;9.20;99.90;;;;;;5114896;28;20027;-70
2020/12/01 20:35:30;;;;;;;35.83;6.50;;;9.20;99.90;;;;;;5114870;28;20047;-69
2020/12/01 20:38:33;;;;;;;34.88;6.63;;;9.20;99.90;;;;;;5115378;28;20096;-72